Time;durP1;ratioP1;P1;durP2;ratioP2;P2;SDS_P1;SDS_P2;PMS_P1;PMS_P2;Temp;Humidity;BMP_temperature;BMP_pressure;BME280_temperature;BME280_humidity;BME280_pressure;Samples;Min_cycle;Max_cycle;Signal;HPM_P1;HPM_P2
2022/06/30 00:00:49;;;;;;;2.70;1.90;;;24.80;92.40;;;;;;5048437;28;20224;-43
2022/06/30 00:03:16;;;;;;;3.20;1.95;;;24.80;92.50;;;;;;5049029;28;20193;-42
2022/06/30 00:05:44;;;;;;;2.15;1.60;;;24.70;92.40;;;;;;5033647;28;20313;-42
2022/06/30 00:08:11;;;;;;;8.98;1.98;;;24.70;92.50;;;;;;5038059;28;20231;-42
2022/06/30 00:10:38;;;;;;;7.82;2.03;;;24.60;92.50;;;;;;5048477;28;20200;-42
2022/06/30 00:13:06;;;;;;;3.92;2.13;;;24.60;92.60;;;;;;5047910;28;20204;-42
2022/06/30 00:15:35;;;;;;;4.43;1.83;;;24.50;92.60;;;;;;5048449;28;20646;-42
2022/06/30 00:18:05;;;;;;;1.92;1.73;;;24.50;92.70;;;;;;5049174;28;20207;-42
2022/06/30 00:20:35;;;;;;;3.25;1.90;;;24.50;92.90;;;;;;5048250;28;20204;-42
2022/06/30 00:23:04;;;;;;;3.83;2.20;;;24.40;93.00;;;;;;5048756;28;20223;-42
2022/06/30 00:25:31;;;;;;;2.08;1.50;;;24.40;92.80;;;;;;5048252;28;20274;-42
2022/06/30 00:28:04;;;;;;;2.67;1.60;;;24.40;92.70;;;;;;5049257;28;20750;-42
2022/06/30 00:30:31;;;;;;;3.03;1.73;;;24.30;92.70;;;;;;5048576;28;20220;-42
2022/06/30 00:32:58;;;;;;;4.68;2.67;;;24.30;92.70;;;;;;5048466;28;20652;-42
2022/06/30 00:35:25;;;;;;;7.72;3.70;;;24.20;93.10;;;;;;5048047;28;20236;-42
2022/06/30 00:37:57;;;;;;;5.53;3.72;;;24.20;93.30;;;;;;5048295;28;20232;-42
2022/06/30 00:40:29;;;;;;;5.22;3.60;;;24.10;93.10;;;;;;5047990;28;20502;-42
2022/06/30 00:43:01;;;;;;;6.85;4.15;;;24.00;93.30;;;;;;5048328;28;20257;-42
2022/06/30 00:45:31;;;;;;;6.22;3.97;;;24.00;93.30;;;;;;5047059;28;20256;-42
2022/06/30 00:48:00;;;;;;;8.60;4.97;;;24.00;93.00;;;;;;5047987;28;20204;-41
2022/06/30 00:50:27;;;;;;;12.23;4.90;;;23.90;93.30;;;;;;5047553;28;20212;-41
2022/06/30 00:52:56;;;;;;;7.82;4.95;;;23.90;93.30;;;;;;5039083;28;20208;-42
2022/06/30 00:55:25;;;;;;;6.80;4.43;;;23.80;93.10;;;;;;5026548;28;20738;-42
2022/06/30 00:57:54;;;;;;;8.70;5.13;;;23.80;93.10;;;;;;5046057;28;20824;-42
2022/06/30 01:00:23;;;;;;;7.70;4.90;;;23.70;93.20;;;;;;5047655;28;20204;-41
2022/06/30 01:02:52;;;;;;;10.68;5.35;;;23.70;93.00;;;;;;5047785;28;20254;-41
2022/06/30 01:05:23;;;;;;;6.63;4.40;;;23.60;93.10;;;;;;5044939;28;20203;-42
2022/06/30 01:07:52;;;;;;;7.57;5.18;;;23.50;92.80;;;;;;5045707;28;20235;-42
2022/06/30 01:13:10;;;;;;;6.57;4.60;;;23.30;93.00;;;;;;5047553;28;20258;-41
2022/06/30 01:15:38;;;;;;;8.25;4.45;;;23.20;92.80;;;;;;5047158;28;20232;-41
2022/06/30 01:18:08;;;;;;;5.75;4.35;;;23.20;92.80;;;;;;5047400;28;20208;-42
2022/06/30 01:20:38;;;;;;;8.05;4.75;;;23.10;92.90;;;;;;5047044;28;20403;-41
2022/06/30 01:23:05;;;;;;;10.13;4.53;;;23.00;92.90;;;;;;5047709;28;20274;-41
2022/06/30 01:25:33;;;;;;;6.53;4.40;;;23.00;93.00;;;;;;5046915;28;20409;-41
2022/06/30 01:28:03;;;;;;;8.10;4.40;;;22.90;93.10;;;;;;5047383;28;20208;-41
2022/06/30 01:30:33;;;;;;;8.98;4.25;;;22.90;93.10;;;;;;5054206;28;20212;-41
2022/06/30 01:33:02;;;;;;;6.65;4.30;;;22.80;92.90;;;;;;5045982;28;20230;-41
2022/06/30 01:35:29;;;;;;;8.98;4.00;;;22.80;92.80;;;;;;5046755;28;20324;-41
2022/06/30 01:37:59;;;;;;;7.35;4.40;;;22.70;92.80;;;;;;5047509;28;20319;-41
2022/06/30 01:40:33;;;;;;;5.57;4.18;;;22.70;92.90;;;;;;5047514;28;20204;-41
2022/06/30 01:43:05;;;;;;;7.15;4.07;;;22.60;93.00;;;;;;5027534;28;20200;-41
2022/06/30 01:45:33;;;;;;;10.20;4.72;;;22.50;92.90;;;;;;5027486;28;20220;-41
2022/06/30 01:48:00;;;;;;;6.70;3.78;;;22.40;93.00;;;;;;5045119;28;20208;-41
2022/06/30 01:50:32;;;;;;;7.97;3.90;;;22.40;93.20;;;;;;5046726;28;20313;-41
2022/06/30 01:53:00;;;;;;;6.07;3.80;;;22.30;93.00;;;;;;5047166;28;20262;-41
2022/06/30 01:55:28;;;;;;;6.47;4.50;;;22.20;93.10;;;;;;5034343;28;20233;-41
2022/06/30 01:57:56;;;;;;;6.72;4.00;;;22.20;93.00;;;;;;5031437;28;20307;-41
2022/06/30 02:00:26;;;;;;;7.00;3.85;;;22.20;93.00;;;;;;5044708;28;20571;-41
2022/06/30 02:02:56;;;;;;;5.68;4.05;;;22.10;93.00;;;;;;5027333;28;20209;-41
2022/06/30 02:05:24;;;;;;;9.05;4.22;;;22.10;93.10;;;;;;5025340;28;20219;-41
2022/06/30 02:07:55;;;;;;;9.30;4.38;;;22.00;93.00;;;;;;5033798;28;20212;-41
2022/06/30 02:10:24;;;;;;;7.10;4.20;;;22.00;93.10;;;;;;5046586;28;20694;-41
2022/06/30 02:12:52;;;;;;;7.90;4.55;;;21.90;93.10;;;;;;5046793;28;20224;-40
2022/06/30 02:15:36;;;;;;;7.93;4.53;;;21.80;93.10;;;;;;5045752;28;20224;-41
2022/06/30 02:18:07;;;;;;;8.30;4.03;;;21.80;93.10;;;;;;5041488;28;20205;-42
2022/06/30 02:20:37;;;;;;;5.38;3.88;;;21.70;93.30;;;;;;5026489;28;20201;-40
2022/06/30 02:23:05;;;;;;;7.70;4.32;;;21.70;93.20;;;;;;5026981;28;20213;-40
2022/06/30 02:25:33;;;;;;;6.32;4.50;;;21.70;93.20;;;;;;5026286;28;20209;-41
2022/06/30 02:28:05;;;;;;;6.43;4.20;;;21.70;93.30;;;;;;5057390;28;20273;-35
2022/06/30 02:30:33;;;;;;;6.43;4.13;;;21.60;93.30;;;;;;5046468;28;20487;-41
2022/06/30 02:33:00;;;;;;;6.85;4.10;;;21.60;93.50;;;;;;5046318;28;20204;-40
2022/06/30 02:35:32;;;;;;;8.65;4.90;;;21.60;93.40;;;;;;5046039;28;20240;-41
2022/06/30 02:38:00;;;;;;;6.40;4.53;;;21.60;93.60;;;;;;5045168;28;20240;-40
2022/06/30 02:40:27;;;;;;;9.65;4.95;;;21.50;93.50;;;;;;5046035;28;20303;-40
2022/06/30 02:42:57;;;;;;;8.55;5.28;;;21.50;93.50;;;;;;5046672;28;20287;-41
2022/06/30 02:45:25;;;;;;;8.77;6.03;;;21.50;93.50;;;;;;5050555;28;20249;-41
2022/06/30 02:47:52;;;;;;;6.40;5.80;;;21.50;93.60;;;;;;5046411;28;20201;-41
2022/06/30 02:50:22;;;;;;;7.38;5.60;;;21.40;93.50;;;;;;5046048;28;20248;-41
2022/06/30 02:52:49;;;;;;;8.65;6.38;;;21.40;93.60;;;;;;5046723;28;20353;-41
2022/06/30 02:55:16;;;;;;;7.53;6.03;;;21.40;93.60;;;;;;5046047;28;20227;-41
2022/06/30 02:57:43;;;;;;;8.63;6.20;;;21.40;93.70;;;;;;5046179;28;20303;-41
2022/06/30 03:00:11;;;;;;;9.02;6.55;;;21.40;93.80;;;;;;5045044;28;20235;-41
2022/06/30 03:02:41;;;;;;;10.50;6.03;;;21.30;93.80;;;;;;5053717;28;20208;-34
2022/06/30 03:05:11;;;;;;;9.80;6.38;;;21.30;94.00;;;;;;5045902;28;20208;-34
2022/06/30 03:07:38;;;;;;;7.63;6.00;;;21.30;93.70;;;;;;5046289;28;20302;-34
2022/06/30 03:10:08;;;;;;;7.50;6.07;;;21.30;93.80;;;;;;5046378;28;20219;-35
2022/06/30 03:12:37;;;;;;;8.05;5.97;;;21.30;93.80;;;;;;5045995;28;20737;-34
2022/06/30 03:15:05;;;;;;;7.65;5.50;;;21.30;93.70;;;;;;5044894;28;20236;-40
2022/06/30 03:17:33;;;;;;;8.30;5.18;;;21.30;93.70;;;;;;5035970;28;20292;-35
2022/06/30 03:20:03;;;;;;;6.00;5.25;;;21.20;93.90;;;;;;5033820;28;20219;-34
2022/06/30 03:22:33;;;;;;;7.20;5.35;;;21.20;93.70;;;;;;5046101;28;20204;-35
2022/06/30 03:25:02;;;;;;;7.07;5.60;;;21.20;93.80;;;;;;5045921;28;20256;-35
2022/06/30 03:27:29;;;;;;;6.95;5.13;;;21.20;93.80;;;;;;5046386;28;20701;-34
2022/06/30 03:29:57;;;;;;;8.15;4.97;;;21.20;93.90;;;;;;5049849;28;20206;-34
2022/06/30 03:32:26;;;;;;;8.00;5.35;;;21.20;93.70;;;;;;5064146;28;20207;-35
2022/06/30 03:34:53;;;;;;;7.82;5.57;;;21.20;93.90;;;;;;5062937;28;20306;-34
2022/06/30 03:37:23;;;;;;;6.68;4.82;;;21.10;94.00;;;;;;5049305;28;20681;-34
2022/06/30 03:39:51;;;;;;;6.75;4.93;;;21.10;94.00;;;;;;5049571;28;20549;-34
2022/06/30 03:42:20;;;;;;;5.78;4.47;;;21.10;93.90;;;;;;5049062;28;20250;-34
2022/06/30 03:44:48;;;;;;;8.90;5.28;;;21.10;93.90;;;;;;5049506;28;20700;-34
2022/06/30 03:47:20;;;;;;;6.50;5.18;;;21.00;94.20;;;;;;5037411;28;20722;-34
2022/06/30 03:49:47;;;;;;;7.70;5.25;;;21.00;94.20;;;;;;5048691;28;20212;-34
2022/06/30 03:52:17;;;;;;;9.15;5.18;;;21.00;94.10;;;;;;5049053;28;20212;-34
2022/06/30 03:54:44;;;;;;;7.75;4.60;;;21.00;94.20;;;;;;5046804;28;20285;-34
2022/06/30 03:57:15;;;;;;;7.50;4.35;;;21.00;94.20;;;;;;5060233;28;20584;-34
2022/06/30 03:59:42;;;;;;;6.85;3.90;;;20.90;94.10;;;;;;5049334;28;20216;-34
2022/06/30 04:02:12;;;;;;;8.43;4.63;;;21.00;94.10;;;;;;5049175;28;20254;-36
2022/06/30 04:04:41;;;;;;;6.70;3.85;;;20.90;94.10;;;;;;5049340;28;20221;-34
2022/06/30 04:07:13;;;;;;;11.52;4.22;;;20.90;94.00;;;;;;5049116;28;20200;-36
2022/06/30 04:09:41;;;;;;;5.55;3.40;;;21.00;94.20;;;;;;5049127;28;20289;-35
2022/06/30 04:12:13;;;;;;;13.30;6.28;;;20.90;94.10;;;;;;5049779;28;20745;-36
2022/06/30 04:14:40;;;;;;;8.57;3.85;;;20.90;94.40;;;;;;5048838;28;20670;-35
2022/06/30 04:17:08;;;;;;;5.10;3.05;;;20.90;94.20;;;;;;5048528;28;20192;-35
2022/06/30 04:19:37;;;;;;;5.60;3.00;;;20.90;94.30;;;;;;5048418;28;20250;-36
2022/06/30 04:22:05;;;;;;;5.63;3.10;;;20.90;94.30;;;;;;5049090;28;20201;-36
2022/06/30 04:24:35;;;;;;;5.60;2.90;;;20.90;94.30;;;;;;5048719;28;20731;-35
2022/06/30 04:27:02;;;;;;;4.63;2.47;;;20.90;94.30;;;;;;5048205;28;20657;-36
2022/06/30 04:29:30;;;;;;;4.55;3.08;;;20.90;94.40;;;;;;5048249;28;20208;-36
2022/06/30 04:34:45;;;;;;;6.68;2.50;;;20.90;94.30;;;;;;5047526;28;20230;-37
2022/06/30 04:37:15;;;;;;;5.75;2.33;;;20.90;94.50;;;;;;5047977;28;20339;-36
2022/06/30 04:39:43;;;;;;;7.10;2.08;;;20.90;94.50;;;;;;5046437;28;20196;-36
2022/06/30 04:42:12;;;;;;;4.07;2.08;;;21.00;94.40;;;;;;5046424;28;20200;-36
2022/06/30 04:44:40;;;;;;;6.20;2.58;;;21.00;94.50;;;;;;5048331;28;20205;-36
2022/06/30 04:47:07;;;;;;;4.63;2.22;;;21.00;94.50;;;;;;5047997;28;20258;-36
2022/06/30 04:49:37;;;;;;;5.65;2.28;;;21.00;94.50;;;;;;5051198;28;20218;-35
2022/06/30 04:52:04;;;;;;;5.95;2.50;;;21.00;94.60;;;;;;5066792;28;20196;-36
2022/06/30 04:54:31;;;;;;;6.60;2.25;;;21.00;94.50;;;;;;5047794;28;20200;-36
2022/06/30 04:56:59;;;;;;;6.38;2.40;;;21.00;94.50;;;;;;5047727;28;20196;-36
2022/06/30 04:59:28;;;;;;;3.55;2.00;;;21.10;94.50;;;;;;5046556;28;20291;-36
2022/06/30 05:01:56;;;;;;;4.03;1.77;;;21.10;94.50;;;;;;5043243;28;20275;-36
2022/06/30 05:04:25;;;;;;;7.68;2.25;;;21.10;94.50;;;;;;5047484;28;20303;-36
2022/06/30 05:06:53;;;;;;;5.65;2.42;;;21.10;94.60;;;;;;5047475;28;20201;-37
2022/06/30 05:09:20;;;;;;;4.78;1.83;;;21.10;94.50;;;;;;5047353;28;20204;-36
2022/06/30 05:11:50;;;;;;;6.68;2.45;;;21.10;94.60;;;;;;5046258;28;20220;-36
2022/06/30 05:14:20;;;;;;;4.50;1.98;;;21.10;94.40;;;;;;5047620;28;20311;-36
2022/06/30 05:16:48;;;;;;;4.63;2.20;;;21.20;94.60;;;;;;5034017;28;20231;-36
2022/06/30 05:19:16;;;;;;;2.75;2.05;;;21.10;94.60;;;;;;5046781;28;20214;-41
2022/06/30 05:21:43;;;;;;;2.60;1.70;;;21.20;94.60;;;;;;5047085;28;20213;-42
2022/06/30 05:26:58;;;;;;;6.22;1.60;;;21.20;94.60;;;;;;5046952;28;20257;-41
2022/06/30 05:29:28;;;;;;;7.15;1.80;;;21.20;94.70;;;;;;5047270;28;20266;-41
2022/06/30 05:31:55;;;;;;;5.05;1.67;;;21.20;94.60;;;;;;5044720;28;20575;-41
2022/06/30 05:34:27;;;;;;;5.90;2.08;;;21.20;94.60;;;;;;5046922;28;20234;-42
2022/06/30 05:36:56;;;;;;;6.93;2.20;;;21.30;94.60;;;;;;5044513;28;20243;-36
2022/06/30 05:39:23;;;;;;;5.10;1.80;;;21.30;94.50;;;;;;5046943;28;20219;-36
2022/06/30 05:41:51;;;;;;;3.92;1.60;;;21.30;94.60;;;;;;5046936;28;20277;-36
2022/06/30 05:44:18;;;;;;;5.95;2.17;;;21.30;94.50;;;;;;5047082;28;20196;-36
2022/06/30 05:46:48;;;;;;;7.75;2.03;;;21.30;94.70;;;;;;5036506;28;20208;-37
2022/06/30 05:49:20;;;;;;;6.45;1.88;;;21.30;94.70;;;;;;5034670;28;20200;-36
2022/06/30 05:51:50;;;;;;;4.80;1.80;;;21.40;94.60;;;;;;5040662;28;20200;-36
2022/06/30 05:54:19;;;;;;;2.90;1.52;;;21.40;94.70;;;;;;5042642;28;20223;-36
2022/06/30 05:56:48;;;;;;;3.53;1.67;;;21.40;94.70;;;;;;5044914;28;20227;-36
2022/06/30 05:59:15;;;;;;;7.10;2.03;;;21.40;94.80;;;;;;5042536;28;20418;-36
2022/06/30 06:01:45;;;;;;;5.88;1.60;;;21.40;94.70;;;;;;5040044;28;20200;-36
2022/06/30 06:04:12;;;;;;;4.97;1.20;;;21.50;94.70;;;;;;5040627;28;20216;-41
2022/06/30 06:06:40;;;;;;;5.22;1.73;;;21.50;94.70;;;;;;5045955;28;20208;-36
2022/06/30 06:09:07;;;;;;;4.00;1.65;;;21.50;94.70;;;;;;5046727;28;20250;-36
2022/06/30 06:11:36;;;;;;;3.50;1.30;;;21.60;94.80;;;;;;5041961;28;20600;-36
2022/06/30 06:14:03;;;;;;;3.38;1.30;;;21.60;94.70;;;;;;5044106;28;20220;-36
2022/06/30 06:16:30;;;;;;;2.72;1.33;;;21.60;94.80;;;;;;5043934;28;20223;-36
2022/06/30 06:18:57;;;;;;;2.97;1.20;;;21.60;94.80;;;;;;5046798;28;20231;-36
2022/06/30 06:21:26;;;;;;;4.43;1.60;;;21.70;94.90;;;;;;5042165;28;20196;-36
2022/06/30 06:23:54;;;;;;;4.07;1.63;;;21.70;94.80;;;;;;5046111;28;20690;-36
2022/06/30 06:26:24;;;;;;;5.80;1.70;;;21.70;94.80;;;;;;5043724;28;20200;-36
2022/06/30 06:29:06;;;;;;;3.30;1.30;;;21.70;94.90;;;;;;5044429;28;20281;-36
2022/06/30 06:31:36;;;;;;;6.57;1.80;;;21.80;94.90;;;;;;5040660;28;20207;-36
2022/06/30 06:34:04;;;;;;;5.88;2.03;;;21.90;95.00;;;;;;5046185;28;20208;-36
2022/06/30 06:36:35;;;;;;;5.18;1.70;;;21.90;95.00;;;;;;5041834;28;20243;-36
2022/06/30 06:39:02;;;;;;;4.15;1.25;;;21.90;95.00;;;;;;5045464;28;20212;-36
2022/06/30 06:41:35;;;;;;;4.05;1.77;;;21.90;95.00;;;;;;5042028;28;20216;-36
2022/06/30 06:44:02;;;;;;;8.13;1.67;;;22.00;95.10;;;;;;5035812;28;20204;-36
2022/06/30 06:46:30;;;;;;;5.97;1.77;;;22.00;95.10;;;;;;5041397;28;20200;-36
2022/06/30 06:49:06;;;;;;;4.13;1.48;;;22.10;95.20;;;;;;5043694;28;20224;-36
2022/06/30 06:51:34;;;;;;;4.03;1.48;;;22.10;95.30;;;;;;5042654;28;20673;-36
2022/06/30 06:54:02;;;;;;;3.42;1.50;;;22.10;95.10;;;;;;5044866;28;20212;-36
2022/06/30 06:56:29;;;;;;;4.70;1.55;;;22.10;95.10;;;;;;5063415;28;20219;-36
2022/06/30 06:58:59;;;;;;;8.55;3.40;;;22.10;95.00;;;;;;5066237;28;20368;-36
2022/06/30 07:01:30;;;;;;;5.93;2.50;;;22.20;95.00;;;;;;5052677;28;20728;-36
2022/06/30 07:03:57;;;;;;;6.63;1.42;;;22.20;95.00;;;;;;5047467;28;20220;-36
2022/06/30 07:06:25;;;;;;;4.70;1.70;;;22.20;95.00;;;;;;5063354;28;20586;-36
2022/06/30 07:08:53;;;;;;;5.45;1.48;;;22.30;95.00;;;;;;5061156;28;20289;-36
2022/06/30 07:11:23;;;;;;;4.13;1.67;;;22.30;95.00;;;;;;5048351;28;20254;-38
2022/06/30 07:13:50;;;;;;;3.13;1.48;;;22.30;95.00;;;;;;5045314;28;20200;-36
2022/06/30 07:16:20;;;;;;;2.95;1.50;;;22.30;95.00;;;;;;5055916;28;20293;-36
2022/06/30 07:18:52;;;;;;;4.72;1.63;;;22.30;95.00;;;;;;5052252;28;20643;-36
2022/06/30 07:21:21;;;;;;;1.80;1.30;;;22.30;95.00;;;;;;5046626;28;20197;-36
2022/06/30 07:23:51;;;;;;;3.50;1.70;;;22.40;95.10;;;;;;5049734;28;20208;-36
2022/06/30 07:26:21;;;;;;;2.92;1.63;;;22.40;95.10;;;;;;5054889;28;20282;-36
2022/06/30 07:28:51;;;;;;;4.85;1.70;;;22.50;95.10;;;;;;5047981;28;20217;-36
2022/06/30 07:31:21;;;;;;;4.82;2.00;;;22.50;95.10;;;;;;5047307;28;20215;-36
2022/06/30 07:33:48;;;;;;;6.43;1.63;;;22.50;95.10;;;;;;5048424;28;20215;-36
2022/06/30 07:36:16;;;;;;;3.13;1.83;;;22.60;95.10;;;;;;5048670;28;20298;-36
2022/06/30 07:38:47;;;;;;;2.90;1.50;;;22.60;95.10;;;;;;5044978;28;20561;-36
2022/06/30 07:41:17;;;;;;;4.32;1.35;;;22.60;95.00;;;;;;5045188;28;20204;-36
2022/06/30 07:43:44;;;;;;;5.15;1.90;;;22.60;95.00;;;;;;5045726;28;20200;-36
2022/06/30 07:46:12;;;;;;;3.78;1.38;;;22.70;95.00;;;;;;5044624;28;20210;-36
2022/06/30 07:48:39;;;;;;;7.95;2.10;;;22.70;94.90;;;;;;5048563;28;20732;-36
2022/06/30 07:51:07;;;;;;;4.78;2.13;;;22.70;94.90;;;;;;5045922;28;20211;-36
2022/06/30 07:53:41;;;;;;;11.07;2.92;;;22.80;95.00;;;;;;5063066;28;20281;-36
2022/06/30 07:56:09;;;;;;;10.30;2.70;;;22.80;95.00;;;;;;5038741;28;20335;-36
2022/06/30 07:58:36;;;;;;;6.68;2.08;;;22.80;95.10;;;;;;5043903;28;20235;-36
2022/06/30 08:01:03;;;;;;;5.75;2.33;;;22.90;95.20;;;;;;5062146;28;20302;-36
2022/06/30 08:03:35;;;;;;;9.32;2.60;;;22.90;95.10;;;;;;5068930;28;20638;-36
2022/06/30 08:06:07;;;;;;;4.22;2.03;;;23.00;95.20;;;;;;5060932;28;20211;-36
2022/06/30 08:08:37;;;;;;;6.15;2.00;;;23.00;95.10;;;;;;5051176;28;20642;-36
2022/06/30 08:11:04;;;;;;;3.45;1.80;;;23.00;95.10;;;;;;5047763;28;20604;-36
2022/06/30 08:13:35;;;;;;;4.75;2.15;;;23.10;95.20;;;;;;5047715;28;20221;-36
2022/06/30 08:16:03;;;;;;;5.45;1.60;;;23.10;95.10;;;;;;5042351;28;20220;-36
2022/06/30 08:18:30;;;;;;;4.47;1.85;;;23.10;95.10;;;;;;5055176;28;20215;-36
2022/06/30 08:20:58;;;;;;;9.05;1.90;;;23.20;95.20;;;;;;5041965;28;20205;-36
2022/06/30 08:23:28;;;;;;;3.95;1.83;;;23.20;95.20;;;;;;5028963;28;20201;-36
2022/06/30 08:25:57;;;;;;;6.40;1.90;;;23.20;95.20;;;;;;5047042;28;20202;-36
2022/06/30 08:28:24;;;;;;;4.13;1.90;;;23.20;95.30;;;;;;5068288;28;20223;-36
2022/06/30 08:30:51;;;;;;;5.60;2.58;;;23.20;95.20;;;;;;5045796;28;20315;-36
2022/06/30 08:33:19;;;;;;;5.82;2.00;;;23.30;95.20;;;;;;5046819;28;20696;-36
2022/06/30 08:35:48;;;;;;;4.68;1.98;;;23.30;95.30;;;;;;5047517;28;20282;-36
2022/06/30 08:38:27;;;;;;;4.45;2.17;;;23.30;95.20;;;;;;5047178;28;20270;-36
2022/06/30 08:43:45;;;;;;;2.95;2.13;;;23.40;95.20;;;;;;5045161;28;20204;-36
2022/06/30 08:46:18;;;;;;;4.63;2.13;;;23.40;95.20;;;;;;5045537;28;20303;-37
2022/06/30 08:48:45;;;;;;;4.72;2.15;;;23.40;95.10;;;;;;5042519;28;20250;-36
2022/06/30 08:51:14;;;;;;;5.00;2.53;;;23.50;95.20;;;;;;5044822;28;20208;-36
2022/06/30 08:53:45;;;;;;;6.97;2.58;;;23.40;95.20;;;;;;5024402;28;20231;-36
2022/06/30 08:56:18;;;;;;;5.40;2.40;;;23.50;95.20;;;;;;5037008;28;20227;-36
2022/06/30 08:58:47;;;;;;;4.47;2.00;;;23.50;95.10;;;;;;5035742;28;20576;-36
2022/06/30 09:01:15;;;;;;;5.07;2.05;;;23.50;95.20;;;;;;5048862;28;20254;-36
2022/06/30 09:03:46;;;;;;;5.72;2.63;;;23.50;95.20;;;;;;5051265;28;20269;-37
2022/06/30 09:06:14;;;;;;;4.13;2.13;;;23.60;95.30;;;;;;5061745;28;20208;-36
2022/06/30 09:09:04;;;;;;;3.25;1.92;;;23.70;95.20;;;;;;5046482;28;20212;-37
2022/06/30 09:11:53;;;;;;;5.00;2.20;;;23.70;95.20;;;;;;5043082;28;20211;-36
2022/06/30 09:14:37;;;;;;;3.15;1.70;;;23.70;95.20;;;;;;5051832;28;20243;-36
2022/06/30 09:17:12;;;;;;;5.07;1.92;;;23.70;95.30;;;;;;5046291;28;20220;-36
2022/06/30 09:20:08;;;;;;;4.55;2.13;;;23.70;95.40;;;;;;5043456;28;20588;-36
2022/06/30 09:22:40;;;;;;;6.43;2.10;;;23.70;95.40;;;;;;5040009;28;20197;-37
2022/06/30 09:25:15;;;;;;;3.17;2.00;;;23.80;95.40;;;;;;5034659;28;20232;-36
2022/06/30 09:27:44;;;;;;;4.97;2.10;;;23.80;95.40;;;;;;5038970;28;20690;-37
2022/06/30 09:30:23;;;;;;;5.28;2.00;;;23.90;95.40;;;;;;5045496;28;20345;-36
2022/06/30 09:32:56;;;;;;;3.92;1.92;;;23.90;95.40;;;;;;5042695;28;20280;-36
2022/06/30 09:35:27;;;;;;;4.03;2.05;;;24.00;95.40;;;;;;5046272;28;20585;-36
2022/06/30 09:38:02;;;;;;;7.18;2.42;;;24.10;95.50;;;;;;5042093;28;20807;-36
2022/06/30 09:40:33;;;;;;;8.30;2.08;;;24.20;95.50;;;;;;5053084;28;20222;-37
2022/06/30 09:43:02;;;;;;;4.45;2.08;;;24.30;95.50;;;;;;5044704;28;20204;-40
2022/06/30 09:45:41;;;;;;;4.97;2.05;;;24.30;95.50;;;;;;5046703;28;20565;-37
2022/06/30 09:48:18;;;;;;;4.97;1.80;;;24.40;95.60;;;;;;5044525;28;20200;-36
2022/06/30 09:50:59;;;;;;;3.47;1.80;;;24.40;95.60;;;;;;5044348;28;20207;-37
2022/06/30 09:53:27;;;;;;;3.90;1.75;;;24.50;95.70;;;;;;5043758;28;20243;-37
2022/06/30 09:55:55;;;;;;;3.53;1.65;;;24.60;95.70;;;;;;5043755;28;20204;-37
2022/06/30 09:58:31;;;;;;;4.28;1.70;;;24.50;95.70;;;;;;5034016;28;20579;-37
2022/06/30 10:01:02;;;;;;;4.38;1.58;;;24.60;95.70;;;;;;5040435;28;20204;-37
2022/06/30 10:03:36;;;;;;;3.10;1.52;;;24.70;95.80;;;;;;5044022;28;20196;-37
2022/06/30 10:06:10;;;;;;;2.55;1.42;;;24.70;95.70;;;;;;5041990;28;20215;-37
2022/06/30 10:08:37;;;;;;;6.00;2.00;;;24.70;95.70;;;;;;5038068;28;20278;-36
2022/06/30 10:11:06;;;;;;;2.92;1.30;;;24.80;95.70;;;;;;5040463;28;20216;-37
2022/06/30 10:13:41;;;;;;;3.50;1.83;;;24.80;95.70;;;;;;5043209;28;20288;-37
2022/06/30 10:16:12;;;;;;;3.25;1.40;;;24.80;95.70;;;;;;5040908;28;20302;-36
2022/06/30 10:18:40;;;;;;;1.85;1.10;;;24.90;95.60;;;;;;5046133;28;20683;-38
2022/06/30 10:21:10;;;;;;;5.05;1.60;;;24.90;95.30;;;;;;5045177;28;20200;-36
2022/06/30 10:23:38;;;;;;;3.10;1.27;;;24.90;95.30;;;;;;5038907;28;20582;-36
2022/06/30 10:27:11;;;;;;;2.92;1.30;;;24.90;95.30;;;;;;5044905;28;20677;-36
2022/06/30 10:29:00;;;;;;;4.05;1.65;;;24.80;95.20;;;;;;5046104;28;20216;-37
2022/06/30 10:32:06;;;;;;;2.40;1.33;;;24.80;95.20;;;;;;5050827;28;20209;-37
2022/06/30 10:34:42;;;;;;;2.38;1.70;;;24.80;95.10;;;;;;5027584;28;20346;-37
2022/06/30 10:37:31;;;;;;;2.85;1.40;;;24.70;95.10;;;;;;5035428;28;20674;-36
2022/06/30 10:40:03;;;;;;;2.58;1.35;;;24.70;95.10;;;;;;5050365;28;20544;-35
2022/06/30 10:42:55;;;;;;;2.58;1.52;;;24.60;95.10;;;;;;5049301;28;20195;-35
2022/06/30 10:45:31;;;;;;;5.13;1.80;;;24.70;95.10;;;;;;5061631;28;20203;-35
2022/06/30 10:48:03;;;;;;;6.13;1.65;;;24.60;95.20;;;;;;5047469;28;20224;-36
2022/06/30 10:50:36;;;;;;;4.35;1.67;;;24.60;95.10;;;;;;5042665;28;20286;-37
2022/06/30 10:53:05;;;;;;;6.03;2.00;;;24.60;95.10;;;;;;5047765;28;20257;-37
2022/06/30 10:55:52;;;;;;;4.60;1.90;;;24.60;95.10;;;;;;5030567;28;20310;-37
2022/06/30 10:58:21;;;;;;;3.38;1.40;;;24.50;94.90;;;;;;5043215;28;20230;-36
2022/06/30 11:01:02;;;;;;;2.95;1.48;;;24.50;95.00;;;;;;5037460;28;20259;-37
2022/06/30 11:03:29;;;;;;;4.20;1.90;;;24.50;95.00;;;;;;5041164;28;20212;-37
2022/06/30 11:06:06;;;;;;;2.60;1.40;;;24.50;95.00;;;;;;5049069;28;20240;-37
2022/06/30 11:08:36;;;;;;;3.55;1.65;;;24.50;95.00;;;;;;5063335;28;20451;-37
2022/06/30 11:11:34;;;;;;;8.32;1.90;;;24.50;95.00;;;;;;5061699;28;20207;-37
2022/06/30 11:14:02;;;;;;;4.03;1.60;;;24.50;95.00;;;;;;5021393;28;20227;-37
2022/06/30 11:16:35;;;;;;;3.50;1.50;;;24.50;95.00;;;;;;5044104;28;20201;-37
2022/06/30 11:19:04;;;;;;;5.70;1.50;;;24.50;94.90;;;;;;5046520;28;20196;-37
2022/06/30 11:21:32;;;;;;;2.67;1.20;;;24.50;95.00;;;;;;5047360;28;20216;-36
2022/06/30 11:24:05;;;;;;;3.10;1.67;;;24.40;94.90;;;;;;5043114;28;20204;-36
2022/06/30 11:29:27;;;;;;;4.85;1.95;;;24.40;95.00;;;;;;5041738;28;20206;-37
2022/06/30 11:31:59;;;;;;;3.15;1.40;;;24.30;95.00;;;;;;5049374;28;20219;-36
2022/06/30 11:34:31;;;;;;;3.42;1.60;;;24.30;95.10;;;;;;5044093;28;20203;-36
2022/06/30 11:36:58;;;;;;;3.10;1.73;;;24.30;95.10;;;;;;5042830;28;20240;-37
2022/06/30 11:39:28;;;;;;;3.92;1.50;;;24.30;95.20;;;;;;5052015;28;20264;-37
2022/06/30 11:41:56;;;;;;;3.13;1.52;;;24.40;95.20;;;;;;5050958;28;20262;-36
2022/06/30 11:44:34;;;;;;;2.55;1.33;;;24.40;95.20;;;;;;5049608;28;20196;-37
2022/06/30 11:47:07;;;;;;;3.25;1.38;;;24.40;95.20;;;;;;5047771;28;20204;-37
2022/06/30 11:49:42;;;;;;;2.78;1.67;;;24.50;95.30;;;;;;5059863;28;20239;-37
2022/06/30 11:52:23;;;;;;;2.83;1.38;;;24.50;95.20;;;;;;5051743;28;20199;-37
2022/06/30 11:54:54;;;;;;;4.20;1.63;;;24.50;95.20;;;;;;5041699;28;20250;-37
2022/06/30 11:57:27;;;;;;;2.92;1.40;;;24.40;95.10;;;;;;5041149;28;20730;-37
2022/06/30 12:00:00;;;;;;;1.80;1.30;;;24.40;95.20;;;;;;5056931;28;20204;-37
2022/06/30 12:02:30;;;;;;;2.47;1.30;;;24.40;95.10;;;;;;5047736;28;20197;-35
2022/06/30 12:04:59;;;;;;;3.50;1.30;;;24.40;95.10;;;;;;5043243;28;20520;-35
2022/06/30 12:07:33;;;;;;;1.92;1.30;;;24.40;95.10;;;;;;5045660;28;20224;-35
2022/06/30 12:10:05;;;;;;;1.08;0.90;;;24.40;95.00;;;;;;5047943;28;20255;-36
2022/06/30 12:12:35;;;;;;;6.53;1.45;;;24.30;94.90;;;;;;5048168;28;20236;-36
2022/06/30 12:15:06;;;;;;;3.80;1.30;;;24.30;94.90;;;;;;5047520;28;20216;-35
2022/06/30 12:17:38;;;;;;;4.07;1.20;;;24.30;94.90;;;;;;5040360;28;20699;-35
2022/06/30 12:20:08;;;;;;;5.45;1.50;;;24.30;95.10;;;;;;5046683;28;20196;-36
2022/06/30 12:22:45;;;;;;;9.98;1.85;;;24.30;95.10;;;;;;5048825;28;20652;-37
2022/06/30 12:25:15;;;;;;;3.08;1.20;;;24.30;95.10;;;;;;5046743;28;20208;-35
2022/06/30 12:27:58;;;;;;;4.10;1.65;;;24.40;95.10;;;;;;5044128;28;20196;-35
2022/06/30 12:30:39;;;;;;;3.53;1.60;;;24.40;95.10;;;;;;5028868;28;20262;-36
2022/06/30 12:33:08;;;;;;;5.18;1.65;;;24.40;95.00;;;;;;5033180;28;20224;-36
2022/06/30 12:35:36;;;;;;;2.83;1.48;;;24.40;94.90;;;;;;5046704;28;20211;-36
2022/06/30 12:38:14;;;;;;;4.47;1.77;;;24.40;94.80;;;;;;5043087;28;20243;-36
2022/06/30 12:40:48;;;;;;;3.60;1.60;;;24.40;94.80;;;;;;5048027;28;20207;-36
2022/06/30 12:43:22;;;;;;;4.85;1.73;;;24.40;94.80;;;;;;5042156;28;20225;-36
2022/06/30 12:45:55;;;;;;;2.53;1.25;;;24.30;94.80;;;;;;5045608;28;20228;-36
2022/06/30 12:48:42;;;;;;;2.20;1.23;;;24.30;94.70;;;;;;5038766;28;20303;-36
2022/06/30 12:51:32;;;;;;;10.15;1.63;;;24.30;94.40;;;;;;5041275;28;20281;-36
2022/06/30 12:54:03;;;;;;;4.53;1.30;;;24.30;94.60;;;;;;5039996;28;20204;-36
2022/06/30 12:56:31;;;;;;;3.25;1.30;;;24.30;94.60;;;;;;5044528;28;20234;-35
2022/06/30 12:59:17;;;;;;;5.22;1.80;;;24.20;94.50;;;;;;5024687;28;20232;-36
2022/06/30 13:01:52;;;;;;;5.00;1.67;;;24.20;94.50;;;;;;5045560;28;20214;-37
2022/06/30 13:04:22;;;;;;;2.17;1.20;;;24.20;94.50;;;;;;5047680;28;20223;-36
2022/06/30 13:06:54;;;;;;;4.72;1.50;;;24.20;94.50;;;;;;5044659;28;20263;-35
2022/06/30 13:09:25;;;;;;;2.22;1.50;;;24.10;94.50;;;;;;5045865;28;20224;-35
2022/06/30 13:12:02;;;;;;;4.75;1.85;;;24.10;94.40;;;;;;5045308;28;20207;-37
2022/06/30 13:14:36;;;;;;;3.47;1.70;;;24.00;94.50;;;;;;5046488;28;20239;-38
2022/06/30 13:17:04;;;;;;;2.40;1.55;;;24.00;94.60;;;;;;5044607;28;20702;-37